sensor_id;sensor_type;location;lat;lon;timestamp;pressure;altitude;pressure_sealevel;temperature;humidity
70027;BME280;57506;50.092;15.804;2023-07-09T00:01:57;99453.00;;;14.72;100.00
70027;BME280;57506;50.092;15.804;2023-07-09T00:04:23;99446.81;;;14.52;100.00
70027;BME280;57506;50.092;15.804;2023-07-09T00:06:48;99456.00;;;14.38;100.00
70027;BME280;57506;50.092;15.804;2023-07-09T00:09:17;99459.34;;;14.20;100.00
70027;BME280;57506;50.092;15.804;2023-07-09T00:11:44;99453.53;;;14.03;100.00
70027;BME280;57506;50.092;15.804;2023-07-09T00:14:14;99458.94;;;13.96;100.00
70027;BME280;57506;50.092;15.804;2023-07-09T00:16:42;99463.56;;;13.89;100.00
70027;BME280;57506;50.092;15.804;2023-07-09T00:19:19;99468.13;;;13.89;100.00
70027;BME280;57506;50.092;15.804;2023-07-09T00:21:50;99475.41;;;14.21;100.00
70027;BME280;57506;50.092;15.804;2023-07-09T00:24:18;99465.00;;;14.18;100.00
70027;BME280;57506;50.092;15.804;2023-07-09T00:26:44;99480.00;;;14.08;100.00
70027;BME280;57506;50.092;15.804;2023-07-09T00:29:12;99461.69;;;13.90;100.00
70027;BME280;57506;50.092;15.804;2023-07-09T00:31:39;99473.53;;;14.15;100.00
70027;BME280;57506;50.092;15.804;2023-07-09T00:34:08;99479.41;;;14.12;100.00
70027;BME280;57506;50.092;15.804;2023-07-09T00:36:34;99469.38;;;13.99;100.00
70027;BME280;57506;50.092;15.804;2023-07-09T00:39:00;99472.28;;;13.98;100.00
70027;BME280;57506;50.092;15.804;2023-07-09T00:41:32;99461.25;;;13.86;100.00
70027;BME280;57506;50.092;15.804;2023-07-09T00:44:23;99476.03;;;13.97;100.00
70027;BME280;57506;50.092;15.804;2023-07-09T00:49:31;99464.16;;;13.85;100.00
70027;BME280;57506;50.092;15.804;2023-07-09T00:52:01;99473.75;;;13.81;100.00
70027;BME280;57506;50.092;15.804;2023-07-09T00:54:39;99475.00;;;13.72;100.00
70027;BME280;57506;50.092;15.804;2023-07-09T00:57:15;99479.38;;;13.59;100.00
70027;BME280;57506;50.092;15.804;2023-07-09T00:59:50;99478.50;;;13.52;100.00
70027;BME280;57506;50.092;15.804;2023-07-09T01:02:17;99472.69;;;13.42;100.00
70027;BME280;57506;50.092;15.804;2023-07-09T01:04:50;99478.50;;;13.52;100.00
70027;BME280;57506;50.092;15.804;2023-07-09T01:07:16;99476.03;;;13.57;100.00
70027;BME280;57506;50.092;15.804;2023-07-09T01:09:42;99467.25;;;13.42;100.00
70027;BME280;57506;50.092;15.804;2023-07-09T01:12:09;99476.19;;;13.36;100.00
70027;BME280;57506;50.092;15.804;2023-07-09T01:14:35;99473.50;;;13.49;100.00
70027;BME280;57506;50.092;15.804;2023-07-09T01:17:04;99474.31;;;13.37;100.00
70027;BME280;57506;50.092;15.804;2023-07-09T01:19:38;99462.59;;;13.16;100.00
70027;BME280;57506;50.092;15.804;2023-07-09T01:22:13;99470.25;;;13.06;100.00
70027;BME280;57506;50.092;15.804;2023-07-09T01:27:37;99474.31;;;13.37;100.00
70027;BME280;57506;50.092;15.804;2023-07-09T01:30:11;99473.84;;;13.20;100.00
70027;BME280;57506;50.092;15.804;2023-07-09T01:32:37;99486.59;;;13.26;100.00
70027;BME280;57506;50.092;15.804;2023-07-09T01:35:05;99488.91;;;13.42;100.00
70027;BME280;57506;50.092;15.804;2023-07-09T01:37:36;99480.19;;;13.66;100.00
70027;BME280;57506;50.092;15.804;2023-07-09T01:40:02;99479.38;;;13.73;100.00
70027;BME280;57506;50.092;15.804;2023-07-09T01:42:30;99490.63;;;13.70;100.00
70027;BME280;57506;50.092;15.804;2023-07-09T01:44:56;99483.09;;;13.52;100.00
70027;BME280;57506;50.092;15.804;2023-07-09T01:47:22;99493.09;;;13.51;100.00
70027;BME280;57506;50.092;15.804;2023-07-09T01:49:50;99479.31;;;13.33;100.00
70027;BME280;57506;50.092;15.804;2023-07-09T01:52:16;99494.88;;;13.18;100.00
70027;BME280;57506;50.092;15.804;2023-07-09T01:54:44;99492.28;;;13.03;100.00
70027;BME280;57506;50.092;15.804;2023-07-09T01:57:24;99505.56;;;12.91;100.00
70027;BME280;57506;50.092;15.804;2023-07-09T01:59:54;99481.13;;;12.65;100.00
70027;BME280;57506;50.092;15.804;2023-07-09T02:02:22;99495.47;;;12.66;100.00
70027;BME280;57506;50.092;15.804;2023-07-09T02:04:53;99491.03;;;12.58;100.00
70027;BME280;57506;50.092;15.804;2023-07-09T02:07:19;99498.31;;;12.57;100.00
70027;BME280;57506;50.092;15.804;2023-07-09T02:09:45;99491.00;;;12.51;100.00
70027;BME280;57506;50.092;15.804;2023-07-09T02:12:12;99497.88;;;12.54;100.00
70027;BME280;57506;50.092;15.804;2023-07-09T02:14:39;99488.28;;;12.45;100.00
70027;BME280;57506;50.092;15.804;2023-07-09T02:17:05;99493.88;;;12.43;100.00
70027;BME280;57506;50.092;15.804;2023-07-09T02:19:31;99505.78;;;12.49;100.00
70027;BME280;57506;50.092;15.804;2023-07-09T02:21:57;99498.63;;;12.41;100.00
70027;BME280;57506;50.092;15.804;2023-07-09T02:24:24;99497.34;;;12.37;100.00
70027;BME280;57506;50.092;15.804;2023-07-09T02:26:54;99499.66;;;12.40;100.00
70027;BME280;57506;50.092;15.804;2023-07-09T02:29:19;99512.78;;;12.43;100.00
70027;BME280;57506;50.092;15.804;2023-07-09T02:31:45;99513.47;;;12.52;100.00
70027;BME280;57506;50.092;15.804;2023-07-09T02:34:11;99514.81;;;12.69;100.00
70027;BME280;57506;50.092;15.804;2023-07-09T02:36:36;99505.84;;;12.62;100.00
70027;BME280;57506;50.092;15.804;2023-07-09T02:39:02;99522.06;;;12.62;100.00
70027;BME280;57506;50.092;15.804;2023-07-09T02:41:28;99518.00;;;12.45;100.00
70027;BME280;57506;50.092;15.804;2023-07-09T02:43:53;99517.25;;;12.57;100.00
70027;BME280;57506;50.092;15.804;2023-07-09T02:46:18;99516.88;;;12.67;100.00
70027;BME280;57506;50.092;15.804;2023-07-09T02:48:44;99526.38;;;12.50;100.00
70027;BME280;57506;50.092;15.804;2023-07-09T02:51:09;99517.75;;;12.40;100.00
70027;BME280;57506;50.092;15.804;2023-07-09T02:53:35;99520.81;;;12.30;100.00
70027;BME280;57506;50.092;15.804;2023-07-09T02:56:01;99530.28;;;12.19;100.00
70027;BME280;57506;50.092;15.804;2023-07-09T02:58:26;99518.63;;;12.19;100.00
70027;BME280;57506;50.092;15.804;2023-07-09T03:00:52;99518.97;;;12.09;100.00
70027;BME280;57506;50.092;15.804;2023-07-09T03:03:21;99513.13;;;12.06;100.00
70027;BME280;57506;50.092;15.804;2023-07-09T03:05:47;99508.94;;;12.03;100.00
70027;BME280;57506;50.092;15.804;2023-07-09T03:08:13;99512.56;;;12.10;100.00
70027;BME280;57506;50.092;15.804;2023-07-09T03:10:40;99525.03;;;12.11;100.00
70027;BME280;57506;50.092;15.804;2023-07-09T03:13:05;99521.84;;;12.01;100.00
70027;BME280;57506;50.092;15.804;2023-07-09T03:15:31;99529.50;;;12.25;100.00
70027;BME280;57506;50.092;15.804;2023-07-09T03:17:57;99522.88;;;12.28;100.00
70027;BME280;57506;50.092;15.804;2023-07-09T03:20:23;99524.09;;;12.25;100.00
70027;BME280;57506;50.092;15.804;2023-07-09T03:22:50;99524.56;;;12.29;100.00
70027;BME280;57506;50.092;15.804;2023-07-09T03:25:16;99532.28;;;12.32;100.00
70027;BME280;57506;50.092;15.804;2023-07-09T03:27:42;99531.44;;;12.32;100.00
70027;BME280;57506;50.092;15.804;2023-07-09T03:30:07;99536.66;;;12.40;100.00
70027;BME280;57506;50.092;15.804;2023-07-09T03:32:33;99540.41;;;12.39;100.00
70027;BME280;57506;50.092;15.804;2023-07-09T03:34:59;99534.16;;;12.38;100.00
70027;BME280;57506;50.092;15.804;2023-07-09T03:37:24;99533.19;;;12.46;100.00
70027;BME280;57506;50.092;15.804;2023-07-09T03:39:50;99535.91;;;12.52;100.00
70027;BME280;57506;50.092;15.804;2023-07-09T03:42:16;99546.41;;;12.62;100.00
70027;BME280;57506;50.092;15.804;2023-07-09T03:44:42;99542.28;;;12.73;100.00
70027;BME280;57506;50.092;15.804;2023-07-09T03:47:07;99539.00;;;12.77;100.00
70027;BME280;57506;50.092;15.804;2023-07-09T03:49:33;99527.78;;;12.80;100.00
70027;BME280;57506;50.092;15.804;2023-07-09T03:51:58;99533.59;;;12.84;100.00
70027;BME280;57506;50.092;15.804;2023-07-09T03:54:24;99543.69;;;12.96;100.00
70027;BME280;57506;50.092;15.804;2023-07-09T03:56:50;99543.91;;;13.02;100.00
70027;BME280;57506;50.092;15.804;2023-07-09T03:59:15;99549.78;;;13.12;100.00
70027;BME280;57506;50.092;15.804;2023-07-09T04:01:41;99540.28;;;13.22;100.00
70027;BME280;57506;50.092;15.804;2023-07-09T04:04:12;99538.25;;;13.31;100.00
70027;BME280;57506;50.092;15.804;2023-07-09T04:06:38;99542.66;;;13.45;100.00
70027;BME280;57506;50.092;15.804;2023-07-09T04:09:04;99547.03;;;13.53;100.00
70027;BME280;57506;50.092;15.804;2023-07-09T04:11:29;99542.69;;;13.65;100.00
70027;BME280;57506;50.092;15.804;2023-07-09T04:13:55;99549.38;;;13.82;100.00
70027;BME280;57506;50.092;15.804;2023-07-09T04:16:21;99549.00;;;13.92;100.00
70027;BME280;57506;50.092;15.804;2023-07-09T04:18:46;99547.75;;;14.14;100.00
70027;BME280;57506;50.092;15.804;2023-07-09T04:21:12;99555.47;;;14.37;100.00
70027;BME280;57506;50.092;15.804;2023-07-09T04:23:37;99555.50;;;14.57;100.00
70027;BME280;57506;50.092;15.804;2023-07-09T04:26:03;99563.59;;;14.70;100.00
70027;BME280;57506;50.092;15.804;2023-07-09T04:28:30;99555.47;;;14.77;100.00
70027;BME280;57506;50.092;15.804;2023-07-09T04:30:56;99569.41;;;14.93;100.00
70027;BME280;57506;50.092;15.804;2023-07-09T04:33:21;99566.41;;;15.15;100.00
70027;BME280;57506;50.092;15.804;2023-07-09T04:35:48;99568.19;;;15.40;100.00
70027;BME280;57506;50.092;15.804;2023-07-09T04:38:14;99562.47;;;15.62;100.00
70027;BME280;57506;50.092;15.804;2023-07-09T04:40:40;99562.13;;;15.83;100.00
70027;BME280;57506;50.092;15.804;2023-07-09T04:43:06;99566.41;;;16.04;100.00
70027;BME280;57506;50.092;15.804;2023-07-09T04:45:32;99565.47;;;16.17;100.00
70027;BME280;57506;50.092;15.804;2023-07-09T04:47:57;99557.41;;;16.28;100.00
70027;BME280;57506;50.092;15.804;2023-07-09T04:50:23;99580.47;;;16.51;100.00
70027;BME280;57506;50.092;15.804;2023-07-09T04:52:48;99574.50;;;16.60;100.00
70027;BME280;57506;50.092;15.804;2023-07-09T04:55:14;99574.78;;;16.77;100.00
70027;BME280;57506;50.092;15.804;2023-07-09T04:57:39;99577.69;;;17.00;100.00
70027;BME280;57506;50.092;15.804;2023-07-09T05:00:06;99585.41;;;17.22;100.00
70027;BME280;57506;50.092;15.804;2023-07-09T05:02:32;99582.81;;;17.45;100.00
70027;BME280;57506;50.092;15.804;2023-07-09T05:04:58;99592.22;;;17.67;100.00
70027;BME280;57506;50.092;15.804;2023-07-09T05:07:25;99585.22;;;17.71;89.99
70027;BME280;57506;50.092;15.804;2023-07-09T05:09:50;99593.75;;;17.93;87.80
70027;BME280;57506;50.092;15.804;2023-07-09T05:12:16;99585.59;;;18.05;87.30
70027;BME280;57506;50.092;15.804;2023-07-09T05:14:42;99590.03;;;18.17;88.02
70027;BME280;57506;50.092;15.804;2023-07-09T05:17:08;99596.22;;;18.36;88.56
70027;BME280;57506;50.092;15.804;2023-07-09T05:19:35;99592.09;;;18.45;86.42
70027;BME280;57506;50.092;15.804;2023-07-09T05:22:00;99601.88;;;18.65;85.37
70027;BME280;57506;50.092;15.804;2023-07-09T05:24:26;99589.91;;;18.77;86.04
70027;BME280;57506;50.092;15.804;2023-07-09T05:26:51;99601.88;;;18.88;85.40
70027;BME280;57506;50.092;15.804;2023-07-09T05:29:17;99593.81;;;18.93;88.06
70027;BME280;57506;50.092;15.804;2023-07-09T05:31:42;99598.66;;;19.03;83.65
70027;BME280;57506;50.092;15.804;2023-07-09T05:34:08;99605.88;;;19.20;82.33
70027;BME280;57506;50.092;15.804;2023-07-09T05:36:34;99597.09;;;19.18;83.48
70027;BME280;57506;50.092;15.804;2023-07-09T05:38:59;99607.78;;;19.32;79.83
70027;BME280;57506;50.092;15.804;2023-07-09T05:41:25;99608.25;;;19.40;80.84
70027;BME280;57506;50.092;15.804;2023-07-09T05:43:52;99620.81;;;19.53;81.22
70027;BME280;57506;50.092;15.804;2023-07-09T05:46:18;99614.25;;;19.66;79.15
70027;BME280;57506;50.092;15.804;2023-07-09T05:48:44;99616.97;;;19.77;76.79
70027;BME280;57506;50.092;15.804;2023-07-09T05:51:10;99609.28;;;19.91;76.91
70027;BME280;57506;50.092;15.804;2023-07-09T05:53:35;99612.81;;;20.03;76.42
70027;BME280;57506;50.092;15.804;2023-07-09T05:56:01;99605.13;;;20.17;77.23
70027;BME280;57506;50.092;15.804;2023-07-09T05:58:27;99612.69;;;20.26;72.42
70027;BME280;57506;50.092;15.804;2023-07-09T06:00:53;99611.81;;;20.38;72.77
70027;BME280;57506;50.092;15.804;2023-07-09T06:03:20;99619.59;;;20.46;71.92
70027;BME280;57506;50.092;15.804;2023-07-09T06:05:47;99612.31;;;20.51;73.10
70027;BME280;57506;50.092;15.804;2023-07-09T06:08:24;99607.59;;;20.64;71.31
70027;BME280;57506;50.092;15.804;2023-07-09T06:10:53;99611.09;;;20.76;73.11
70027;BME280;57506;50.092;15.804;2023-07-09T06:13:20;99614.56;;;20.88;66.76
70027;BME280;57506;50.092;15.804;2023-07-09T06:15:50;99623.25;;;21.02;65.30
70027;BME280;57506;50.092;15.804;2023-07-09T06:18:16;99616.53;;;21.09;72.05
70027;BME280;57506;50.092;15.804;2023-07-09T06:20:50;99636.09;;;21.35;68.28
70027;BME280;57506;50.092;15.804;2023-07-09T06:23:17;99625.84;;;21.47;67.53
70027;BME280;57506;50.092;15.804;2023-07-09T06:25:44;99625.78;;;21.63;63.73
70027;BME280;57506;50.092;15.804;2023-07-09T06:28:14;99629.03;;;21.82;65.39
70027;BME280;57506;50.092;15.804;2023-07-09T06:30:40;99591.94;;;21.80;63.72
70027;BME280;57506;50.092;15.804;2023-07-09T06:33:06;99625.88;;;21.95;62.05
70027;BME280;57506;50.092;15.804;2023-07-09T06:35:31;99627.13;;;22.31;63.80
70027;BME280;57506;50.092;15.804;2023-07-09T06:37:57;99619.50;;;22.39;67.86
70027;BME280;57506;50.092;15.804;2023-07-09T06:40:23;99604.41;;;22.41;60.73
70027;BME280;57506;50.092;15.804;2023-07-09T06:42:50;99611.22;;;22.65;62.13
70027;BME280;57506;50.092;15.804;2023-07-09T06:45:16;99608.53;;;22.76;62.55
70027;BME280;57506;50.092;15.804;2023-07-09T06:47:41;99612.00;;;22.93;61.76
70027;BME280;57506;50.092;15.804;2023-07-09T06:50:07;99602.66;;;22.94;59.26
70027;BME280;57506;50.092;15.804;2023-07-09T06:52:33;99596.38;;;22.98;61.34
70027;BME280;57506;50.092;15.804;2023-07-09T06:54:58;99611.69;;;23.31;60.44
70027;BME280;57506;50.092;15.804;2023-07-09T06:57:24;99605.56;;;23.19;57.78
70027;BME280;57506;50.092;15.804;2023-07-09T06:59:49;99607.47;;;23.14;54.77
70027;BME280;57506;50.092;15.804;2023-07-09T07:02:17;99604.97;;;23.12;55.05
70027;BME280;57506;50.092;15.804;2023-07-09T07:04:43;99610.56;;;23.27;55.92
70027;BME280;57506;50.092;15.804;2023-07-09T07:07:09;99600.16;;;23.39;57.38
70027;BME280;57506;50.092;15.804;2023-07-09T07:09:35;99603.81;;;23.50;55.54
70027;BME280;57506;50.092;15.804;2023-07-09T07:12:01;99598.53;;;23.44;55.18
70027;BME280;57506;50.092;15.804;2023-07-09T07:14:27;99586.44;;;23.45;55.06
70027;BME280;57506;50.092;15.804;2023-07-09T07:16:56;99604.66;;;23.56;53.40
70027;BME280;57506;50.092;15.804;2023-07-09T07:19:23;99605.00;;;23.64;52.83
70027;BME280;57506;50.092;15.804;2023-07-09T07:21:49;99589.91;;;23.77;53.61
70027;BME280;57506;50.092;15.804;2023-07-09T07:24:14;99585.00;;;23.94;54.09
70027;BME280;57506;50.092;15.804;2023-07-09T07:26:40;99594.63;;;23.97;52.43
70027;BME280;57506;50.092;15.804;2023-07-09T07:29:05;99586.63;;;23.90;52.79
70027;BME280;57506;50.092;15.804;2023-07-09T07:31:31;99596.00;;;23.94;52.28
70027;BME280;57506;50.092;15.804;2023-07-09T07:33:56;99599.63;;;24.00;51.85
70027;BME280;57506;50.092;15.804;2023-07-09T07:36:22;99601.81;;;23.98;50.73
70027;BME280;57506;50.092;15.804;2023-07-09T07:38:48;99601.56;;;24.20;52.72
70027;BME280;57506;50.092;15.804;2023-07-09T07:41:14;99602.72;;;24.44;53.59
70027;BME280;57506;50.092;15.804;2023-07-09T07:43:39;99601.09;;;24.63;51.38
70027;BME280;57506;50.092;15.804;2023-07-09T07:46:06;99599.69;;;24.76;51.59
70027;BME280;57506;50.092;15.804;2023-07-09T07:48:32;99598.59;;;24.82;52.40
70027;BME280;57506;50.092;15.804;2023-07-09T07:50:59;99605.19;;;24.91;50.06
70027;BME280;57506;50.092;15.804;2023-07-09T07:53:26;99596.91;;;24.91;49.80
70027;BME280;57506;50.092;15.804;2023-07-09T07:55:55;99594.16;;;25.06;50.87
70027;BME280;57506;50.092;15.804;2023-07-09T07:58:21;99579.28;;;25.13;49.29
70027;BME280;57506;50.092;15.804;2023-07-09T08:00:47;99586.06;;;25.40;50.44
70027;BME280;57506;50.092;15.804;2023-07-09T08:03:12;99587.06;;;25.75;52.00
70027;BME280;57506;50.092;15.804;2023-07-09T08:05:38;99588.28;;;26.03;47.73
70027;BME280;57506;50.092;15.804;2023-07-09T08:08:04;99591.31;;;26.06;46.47
70027;BME280;57506;50.092;15.804;2023-07-09T08:10:29;99587.88;;;26.30;46.22
70027;BME280;57506;50.092;15.804;2023-07-09T08:12:55;99587.88;;;26.30;46.31
70027;BME280;57506;50.092;15.804;2023-07-09T08:15:23;99588.88;;;26.44;46.20
70027;BME280;57506;50.092;15.804;2023-07-09T08:17:49;99589.22;;;26.66;47.58
70027;BME280;57506;50.092;15.804;2023-07-09T08:20:15;99585.41;;;26.62;48.21
70027;BME280;57506;50.092;15.804;2023-07-09T08:22:40;99588.25;;;26.47;44.47
70027;BME280;57506;50.092;15.804;2023-07-09T08:25:06;99582.81;;;26.37;45.03
70027;BME280;57506;50.092;15.804;2023-07-09T08:27:32;99583.09;;;26.40;44.10
70027;BME280;57506;50.092;15.804;2023-07-09T08:29:57;99582.84;;;26.32;43.78
70027;BME280;57506;50.092;15.804;2023-07-09T08:32:23;99585.00;;;26.45;45.86
70027;BME280;57506;50.092;15.804;2023-07-09T08:34:49;99577.03;;;26.67;47.48
70027;BME280;57506;50.092;15.804;2023-07-09T08:37:14;99575.25;;;26.81;49.28
70027;BME280;57506;50.092;15.804;2023-07-09T08:39:40;99584.94;;;26.79;44.22
70027;BME280;57506;50.092;15.804;2023-07-09T08:42:29;99581.66;;;26.77;44.84
70027;BME280;57506;50.092;15.804;2023-07-09T08:45:07;99578.66;;;27.02;43.60
70027;BME280;57506;50.092;15.804;2023-07-09T08:47:46;99583.47;;;27.21;43.87
70027;BME280;57506;50.092;15.804;2023-07-09T08:50:20;99576.31;;;27.14;44.54
70027;BME280;57506;50.092;15.804;2023-07-09T08:52:48;99582.16;;;27.13;44.31
70027;BME280;57506;50.092;15.804;2023-07-09T08:55:21;99576.56;;;27.18;42.83
70027;BME280;57506;50.092;15.804;2023-07-09T08:57:50;99577.09;;;27.20;42.84
70027;BME280;57506;50.092;15.804;2023-07-09T09:00:31;99579.88;;;27.20;42.40
70027;BME280;57506;50.092;15.804;2023-07-09T09:03:05;99586.88;;;27.36;43.00
70027;BME280;57506;50.092;15.804;2023-07-09T09:05:39;99579.44;;;27.56;42.82
70027;BME280;57506;50.092;15.804;2023-07-09T09:14:16;99575.25;;;27.82;43.76
70027;BME280;57506;50.092;15.804;2023-07-09T09:16:44;99576.53;;;27.90;41.02
70027;BME280;57506;50.092;15.804;2023-07-09T09:19:26;99564.78;;;27.98;40.43
70027;BME280;57506;50.092;15.804;2023-07-09T09:22:05;99579.22;;;27.95;38.45
70027;BME280;57506;50.092;15.804;2023-07-09T09:27:33;99571.22;;;28.12;37.16
70027;BME280;57506;50.092;15.804;2023-07-09T09:29:59;99567.94;;;28.29;41.44
70027;BME280;57506;50.092;15.804;2023-07-09T09:32:27;99571.81;;;28.46;38.37
70027;BME280;57506;50.092;15.804;2023-07-09T09:34:53;99571.69;;;28.70;40.65
70027;BME280;57506;50.092;15.804;2023-07-09T09:37:30;99570.97;;;28.78;39.89
70027;BME280;57506;50.092;15.804;2023-07-09T09:39:59;99563.66;;;28.87;39.96
70027;BME280;57506;50.092;15.804;2023-07-09T09:42:27;99566.44;;;29.01;41.82
70027;BME280;57506;50.092;15.804;2023-07-09T09:44:54;99567.38;;;29.24;38.21
70027;BME280;57506;50.092;15.804;2023-07-09T09:47:20;99569.00;;;29.25;37.37
70027;BME280;57506;50.092;15.804;2023-07-09T09:49:46;99567.38;;;29.10;33.31
70027;BME280;57506;50.092;15.804;2023-07-09T09:52:17;99568.31;;;29.33;34.76
70027;BME280;57506;50.092;15.804;2023-07-09T09:55:01;99570.66;;;29.26;34.24
70027;BME280;57506;50.092;15.804;2023-07-09T09:57:27;99563.06;;;29.18;33.56
70027;BME280;57506;50.092;15.804;2023-07-09T09:59:54;99563.47;;;29.25;36.83
70027;BME280;57506;50.092;15.804;2023-07-09T10:02:22;99563.47;;;29.25;33.48
70027;BME280;57506;50.092;15.804;2023-07-09T10:04:49;99553.63;;;29.46;39.69
70027;BME280;57506;50.092;15.804;2023-07-09T10:07:36;99561.34;;;29.49;34.20
70027;BME280;57506;50.092;15.804;2023-07-09T10:10:13;99556.09;;;29.62;33.90
70027;BME280;57506;50.092;15.804;2023-07-09T10:30:56;99543.59;;;30.45;31.88
70027;BME280;57506;50.092;15.804;2023-07-09T10:36:19;99543.34;;;30.10;32.61
70027;BME280;57506;50.092;15.804;2023-07-09T10:39:02;99543.44;;;30.05;32.49
70027;BME280;57506;50.092;15.804;2023-07-09T10:41:29;99547.13;;;30.14;31.40
70027;BME280;57506;50.092;15.804;2023-07-09T10:46:38;99542.31;;;30.06;29.99
70027;BME280;57506;50.092;15.804;2023-07-09T10:49:05;99548.00;;;30.01;29.01
70027;BME280;57506;50.092;15.804;2023-07-09T10:51:46;99539.94;;;30.13;30.29
70027;BME280;57506;50.092;15.804;2023-07-09T10:54:42;99549.91;;;30.37;30.76
70027;BME280;57506;50.092;15.804;2023-07-09T10:57:25;99535.34;;;30.31;28.57
70027;BME280;57506;50.092;15.804;2023-07-09T10:59:51;99539.16;;;30.21;28.62
70027;BME280;57506;50.092;15.804;2023-07-09T11:07:23;99532.88;;;30.52;28.67
70027;BME280;57506;50.092;15.804;2023-07-09T11:09:55;99527.56;;;30.64;31.48
70027;BME280;57506;50.092;15.804;2023-07-09T11:12:35;99528.63;;;30.54;31.14
70027;BME280;57506;50.092;15.804;2023-07-09T11:15:15;99532.63;;;30.62;31.97
70027;BME280;57506;50.092;15.804;2023-07-09T11:17:45;99518.41;;;30.64;35.28
70027;BME280;57506;50.092;15.804;2023-07-09T11:20:21;99515.75;;;30.89;32.36
70027;BME280;57506;50.092;15.804;2023-07-09T11:23:05;99519.75;;;31.06;33.34
70027;BME280;57506;50.092;15.804;2023-07-09T11:25:41;99524.09;;;30.89;31.79
70027;BME280;57506;50.092;15.804;2023-07-09T11:28:08;99525.38;;;30.83;29.75
70027;BME280;57506;50.092;15.804;2023-07-09T11:30:49;99529.47;;;30.86;30.24
70027;BME280;57506;50.092;15.804;2023-07-09T11:33:17;99513.50;;;30.69;29.42
70027;BME280;57506;50.092;15.804;2023-07-09T11:35:52;99512.25;;;30.75;30.98
70027;BME280;57506;50.092;15.804;2023-07-09T11:38:23;99515.34;;;30.74;28.90
70027;BME280;57506;50.092;15.804;2023-07-09T11:40:53;99513.97;;;30.63;27.88
70027;BME280;57506;50.092;15.804;2023-07-09T11:43:34;99511.09;;;30.54;30.30
70027;BME280;57506;50.092;15.804;2023-07-09T11:46:11;99513.50;;;30.69;30.96
70027;BME280;57506;50.092;15.804;2023-07-09T11:48:39;99510.66;;;30.83;31.36
70027;BME280;57506;50.092;15.804;2023-07-09T11:51:20;99500.75;;;30.99;30.34
70027;BME280;57506;50.092;15.804;2023-07-09T11:53:50;99509.41;;;30.98;29.75
70027;BME280;57506;50.092;15.804;2023-07-09T11:56:22;99504.66;;;30.98;29.51
70027;BME280;57506;50.092;15.804;2023-07-09T11:58:55;99508.91;;;30.95;29.60
70027;BME280;57506;50.092;15.804;2023-07-09T12:01:27;99504.03;;;31.10;29.11
70027;BME280;57506;50.092;15.804;2023-07-09T12:03:56;99495.81;;;31.05;31.59
70027;BME280;57506;50.092;15.804;2023-07-09T12:06:30;99500.16;;;31.19;28.94
70027;BME280;57506;50.092;15.804;2023-07-09T12:08:57;99506.09;;;31.26;29.64
70027;BME280;57506;50.092;15.804;2023-07-09T12:11:29;99487.56;;;31.22;28.72
70027;BME280;57506;50.092;15.804;2023-07-09T12:14:19;99501.25;;;31.10;28.31
70027;BME280;57506;50.092;15.804;2023-07-09T12:16:47;99497.88;;;31.21;29.58
70027;BME280;57506;50.092;15.804;2023-07-09T12:19:15;99501.66;;;31.25;28.30
70027;BME280;57506;50.092;15.804;2023-07-09T12:21:46;99492.91;;;31.49;30.66
70027;BME280;57506;50.092;15.804;2023-07-09T12:24:25;99492.91;;;31.49;27.29
70027;BME280;57506;50.092;15.804;2023-07-09T12:27:00;99489.28;;;31.49;27.81
70027;BME280;57506;50.092;15.804;2023-07-09T12:29:27;99490.56;;;31.43;27.09
70027;BME280;57506;50.092;15.804;2023-07-09T12:31:56;99481.91;;;31.53;28.29
70027;BME280;57506;50.092;15.804;2023-07-09T12:34:22;99475.50;;;31.52;27.07
70027;BME280;57506;50.092;15.804;2023-07-09T12:36:49;99471.28;;;31.63;27.85
70027;BME280;57506;50.092;15.804;2023-07-09T12:39:21;99471.06;;;31.51;26.85
70027;BME280;57506;50.092;15.804;2023-07-09T12:41:49;99465.34;;;31.39;26.66
70027;BME280;57506;50.092;15.804;2023-07-09T12:44:17;99453.38;;;31.39;26.42
70027;BME280;57506;50.092;15.804;2023-07-09T12:46:44;99451.75;;;31.46;26.81
70027;BME280;57506;50.092;15.804;2023-07-09T12:49:36;99453.72;;;31.54;26.90
70027;BME280;57506;50.092;15.804;2023-07-09T12:52:09;99454.41;;;31.69;28.45
70027;BME280;57506;50.092;15.804;2023-07-09T12:54:37;99447.03;;;31.73;29.33
70027;BME280;57506;50.092;15.804;2023-07-09T12:57:13;99448.03;;;31.85;28.13
70027;BME280;57506;50.092;15.804;2023-07-09T12:59:42;99451.13;;;31.84;26.83
70027;BME280;57506;50.092;15.804;2023-07-09T13:02:20;99445.22;;;31.85;27.81
70027;BME280;57506;50.092;15.804;2023-07-09T13:04:47;99444.09;;;31.78;27.01
70027;BME280;57506;50.092;15.804;2023-07-09T13:07:35;99436.53;;;31.70;26.35
70027;BME280;57506;50.092;15.804;2023-07-09T13:10:22;99437.03;;;31.89;25.49
70027;BME280;57506;50.092;15.804;2023-07-09T13:12:53;99435.56;;;32.09;27.21
70027;BME280;57506;50.092;15.804;2023-07-09T13:18:00;99426.66;;;32.15;28.45
70027;BME280;57506;50.092;15.804;2023-07-09T13:20:27;99419.28;;;32.37;26.99
70027;BME280;57506;50.092;15.804;2023-07-09T13:22:53;99411.22;;;32.44;30.40
70027;BME280;57506;50.092;15.804;2023-07-09T13:25:19;99421.03;;;32.50;29.28
70027;BME280;57506;50.092;15.804;2023-07-09T13:27:44;99417.41;;;32.49;26.65
70027;BME280;57506;50.092;15.804;2023-07-09T13:30:11;99424.31;;;32.52;26.35
70027;BME280;57506;50.092;15.804;2023-07-09T13:32:38;99423.09;;;32.70;27.31
70027;BME280;57506;50.092;15.804;2023-07-09T13:35:13;99423.81;;;32.96;25.57
70027;BME280;57506;50.092;15.804;2023-07-09T13:37:39;99411.03;;;32.95;25.70
70027;BME280;57506;50.092;15.804;2023-07-09T13:40:05;99418.72;;;32.98;26.69